sensor_id;sensor_type;location;lat;lon;timestamp;temperature;humidity
24091;DHT22;12272;52.426;17.100;2023-10-09T00:02:20;5.30;99.90
24091;DHT22;12272;52.426;17.100;2023-10-09T00:07:23;5.40;99.90
24091;DHT22;12272;52.426;17.100;2023-10-09T00:12:32;5.50;99.90
24091;DHT22;12272;52.426;17.100;2023-10-09T00:17:35;5.40;99.90
24091;DHT22;12272;52.426;17.100;2023-10-09T00:22:40;5.50;99.90
24091;DHT22;12272;52.426;17.100;2023-10-09T00:27:48;5.40;99.90
24091;DHT22;12272;52.426;17.100;2023-10-09T00:32:50;5.70;99.90
24091;DHT22;12272;52.426;17.100;2023-10-09T00:38:04;5.50;99.90
24091;DHT22;12272;52.426;17.100;2023-10-09T00:43:22;5.80;99.90
24091;DHT22;12272;52.426;17.100;2023-10-09T00:48:32;5.80;99.90
24091;DHT22;12272;52.426;17.100;2023-10-09T00:53:40;5.90;99.90
24091;DHT22;12272;52.426;17.100;2023-10-09T00:58:43;6.10;99.90
24091;DHT22;12272;52.426;17.100;2023-10-09T01:03:45;6.10;99.90
24091;DHT22;12272;52.426;17.100;2023-10-09T01:08:48;6.60;99.90
24091;DHT22;12272;52.426;17.100;2023-10-09T01:13:58;6.70;99.90
24091;DHT22;12272;52.426;17.100;2023-10-09T01:19:10;6.30;99.90
24091;DHT22;12272;52.426;17.100;2023-10-09T01:24:20;6.30;99.90
24091;DHT22;12272;52.426;17.100;2023-10-09T01:29:25;6.70;99.90
24091;DHT22;12272;52.426;17.100;2023-10-09T01:34:33;6.50;99.90
24091;DHT22;12272;52.426;17.100;2023-10-09T01:39:52;6.40;99.90
24091;DHT22;12272;52.426;17.100;2023-10-09T01:44:54;6.40;99.90
24091;DHT22;12272;52.426;17.100;2023-10-09T01:49:57;6.20;99.90
24091;DHT22;12272;52.426;17.100;2023-10-09T01:55:00;6.30;99.90
24091;DHT22;12272;52.426;17.100;2023-10-09T02:00:09;6.30;99.90
24091;DHT22;12272;52.426;17.100;2023-10-09T02:05:18;6.40;99.90
24091;DHT22;12272;52.426;17.100;2023-10-09T02:10:22;6.60;99.90
24091;DHT22;12272;52.426;17.100;2023-10-09T02:15:36;6.50;99.90
24091;DHT22;12272;52.426;17.100;2023-10-09T02:20:47;6.70;99.90
24091;DHT22;12272;52.426;17.100;2023-10-09T02:25:58;6.60;99.90
24091;DHT22;12272;52.426;17.100;2023-10-09T02:31:11;6.70;99.90
24091;DHT22;12272;52.426;17.100;2023-10-09T02:36:13;6.60;99.90
24091;DHT22;12272;52.426;17.100;2023-10-09T02:41:16;6.70;99.90
24091;DHT22;12272;52.426;17.100;2023-10-09T02:46:20;6.80;99.90
24091;DHT22;12272;52.426;17.100;2023-10-09T02:51:33;6.90;99.90
24091;DHT22;12272;52.426;17.100;2023-10-09T02:56:36;7.00;99.90
24091;DHT22;12272;52.426;17.100;2023-10-09T03:01:40;7.30;99.90
24091;DHT22;12272;52.426;17.100;2023-10-09T03:06:43;7.80;99.90
24091;DHT22;12272;52.426;17.100;2023-10-09T03:11:54;7.60;99.90
24091;DHT22;12272;52.426;17.100;2023-10-09T03:16:57;7.90;99.90
24091;DHT22;12272;52.426;17.100;2023-10-09T03:22:00;7.80;99.90
24091;DHT22;12272;52.426;17.100;2023-10-09T03:27:04;7.60;99.90
24091;DHT22;12272;52.426;17.100;2023-10-09T03:32:07;7.60;99.90
24091;DHT22;12272;52.426;17.100;2023-10-09T03:37:09;7.50;99.90
24091;DHT22;12272;52.426;17.100;2023-10-09T03:42:24;7.90;99.90
24091;DHT22;12272;52.426;17.100;2023-10-09T03:47:27;8.30;99.90
24091;DHT22;12272;52.426;17.100;2023-10-09T03:52:30;8.30;99.90
24091;DHT22;12272;52.426;17.100;2023-10-09T03:57:33;8.10;99.90
24091;DHT22;12272;52.426;17.100;2023-10-09T04:02:36;8.20;99.90
24091;DHT22;12272;52.426;17.100;2023-10-09T04:07:38;8.10;99.90
24091;DHT22;12272;52.426;17.100;2023-10-09T04:12:41;8.10;99.90
24091;DHT22;12272;52.426;17.100;2023-10-09T04:17:44;7.80;99.90
24091;DHT22;12272;52.426;17.100;2023-10-09T04:22:46;8.00;99.90
24091;DHT22;12272;52.426;17.100;2023-10-09T04:27:57;8.20;99.90
24091;DHT22;12272;52.426;17.100;2023-10-09T04:33:13;8.50;99.90
24091;DHT22;12272;52.426;17.100;2023-10-09T04:38:37;8.70;99.90
24091;DHT22;12272;52.426;17.100;2023-10-09T04:43:40;8.50;99.90
24091;DHT22;12272;52.426;17.100;2023-10-09T04:48:47;8.40;99.90
24091;DHT22;12272;52.426;17.100;2023-10-09T04:53:49;8.40;99.90
24091;DHT22;12272;52.426;17.100;2023-10-09T04:59:10;8.50;99.90
24091;DHT22;12272;52.426;17.100;2023-10-09T05:04:20;8.60;99.90
24091;DHT22;12272;52.426;17.100;2023-10-09T05:09:41;8.60;99.90
24091;DHT22;12272;52.426;17.100;2023-10-09T05:14:58;9.00;99.90
24091;DHT22;12272;52.426;17.100;2023-10-09T05:20:15;8.80;99.90
24091;DHT22;12272;52.426;17.100;2023-10-09T05:25:30;8.80;99.90
24091;DHT22;12272;52.426;17.100;2023-10-09T05:30:52;7.90;99.90
24091;DHT22;12272;52.426;17.100;2023-10-09T05:36:08;7.30;99.90
24091;DHT22;12272;52.426;17.100;2023-10-09T05:41:34;7.10;99.90
24091;DHT22;12272;52.426;17.100;2023-10-09T05:46:55;8.20;99.90
24091;DHT22;12272;52.426;17.100;2023-10-09T05:52:26;9.00;99.90
24091;DHT22;12272;52.426;17.100;2023-10-09T05:57:45;9.40;99.90
24091;DHT22;12272;52.426;17.100;2023-10-09T06:02:50;9.50;99.90
24091;DHT22;12272;52.426;17.100;2023-10-09T06:08:11;9.60;99.90
24091;DHT22;12272;52.426;17.100;2023-10-09T06:13:15;9.90;99.90
24091;DHT22;12272;52.426;17.100;2023-10-09T06:18:38;9.70;99.90
24091;DHT22;12272;52.426;17.100;2023-10-09T06:23:45;9.90;99.90
24091;DHT22;12272;52.426;17.100;2023-10-09T06:29:07;10.10;99.90
24091;DHT22;12272;52.426;17.100;2023-10-09T06:34:19;9.70;99.90
24091;DHT22;12272;52.426;17.100;2023-10-09T06:39:24;10.00;99.90
24091;DHT22;12272;52.426;17.100;2023-10-09T06:44:45;10.20;99.90
24091;DHT22;12272;52.426;17.100;2023-10-09T06:49:54;10.20;99.90
24091;DHT22;12272;52.426;17.100;2023-10-09T06:55:36;10.30;99.90
24091;DHT22;12272;52.426;17.100;2023-10-09T07:00:51;10.30;99.90
24091;DHT22;12272;52.426;17.100;2023-10-09T07:06:12;10.50;99.90
24091;DHT22;12272;52.426;17.100;2023-10-09T07:11:27;10.60;99.90
24091;DHT22;12272;52.426;17.100;2023-10-09T07:16:42;10.40;99.90
24091;DHT22;12272;52.426;17.100;2023-10-09T07:22:02;10.40;99.90
24091;DHT22;12272;52.426;17.100;2023-10-09T07:27:05;10.80;99.90
24091;DHT22;12272;52.426;17.100;2023-10-09T07:32:18;10.60;99.90
24091;DHT22;12272;52.426;17.100;2023-10-09T07:37:25;10.70;99.90
24091;DHT22;12272;52.426;17.100;2023-10-09T07:42:33;10.60;99.90
24091;DHT22;12272;52.426;17.100;2023-10-09T07:47:39;10.80;99.90
24091;DHT22;12272;52.426;17.100;2023-10-09T07:53:00;10.90;99.90
24091;DHT22;12272;52.426;17.100;2023-10-09T07:58:17;11.10;99.90
24091;DHT22;12272;52.426;17.100;2023-10-09T08:03:27;11.40;99.90
24091;DHT22;12272;52.426;17.100;2023-10-09T08:08:35;11.60;99.90
24091;DHT22;12272;52.426;17.100;2023-10-09T08:13:40;11.50;99.90
24091;DHT22;12272;52.426;17.100;2023-10-09T08:18:52;11.80;99.90
24091;DHT22;12272;52.426;17.100;2023-10-09T08:23:54;11.90;99.90
24091;DHT22;12272;52.426;17.100;2023-10-09T08:28:57;12.10;99.90
24091;DHT22;12272;52.426;17.100;2023-10-09T08:34:19;12.00;99.80
24091;DHT22;12272;52.426;17.100;2023-10-09T08:39:31;12.00;99.90
24091;DHT22;12272;52.426;17.100;2023-10-09T08:44:39;12.10;99.90
24091;DHT22;12272;52.426;17.100;2023-10-09T08:49:46;11.70;98.90
24091;DHT22;12272;52.426;17.100;2023-10-09T08:54:49;11.80;99.90
24091;DHT22;12272;52.426;17.100;2023-10-09T08:59:52;12.20;99.90
24091;DHT22;12272;52.426;17.100;2023-10-09T09:04:54;12.30;99.90
24091;DHT22;12272;52.426;17.100;2023-10-09T09:09:58;12.50;99.90
24091;DHT22;12272;52.426;17.100;2023-10-09T09:15:20;12.70;99.30
24091;DHT22;12272;52.426;17.100;2023-10-09T09:20:25;13.20;96.80
24091;DHT22;12272;52.426;17.100;2023-10-09T09:25:42;13.40;96.90
24091;DHT22;12272;52.426;17.100;2023-10-09T09:30:50;13.70;95.90
24091;DHT22;12272;52.426;17.100;2023-10-09T09:41:00;14.50;92.60
24091;DHT22;12272;52.426;17.100;2023-10-09T09:46:05;14.60;91.60
24091;DHT22;12272;52.426;17.100;2023-10-09T09:51:12;14.60;82.40
24091;DHT22;12272;52.426;17.100;2023-10-09T09:56:20;14.30;89.40
24091;DHT22;12272;52.426;17.100;2023-10-09T10:01:30;14.00;79.30
24091;DHT22;12272;52.426;17.100;2023-10-09T10:06:34;14.00;78.40
24091;DHT22;12272;52.426;17.100;2023-10-09T10:11:47;14.10;80.70
24091;DHT22;12272;52.426;17.100;2023-10-09T10:17:04;14.20;82.50
24091;DHT22;12272;52.426;17.100;2023-10-09T10:22:28;14.20;82.70
24091;DHT22;12272;52.426;17.100;2023-10-09T10:27:33;14.20;86.40
24091;DHT22;12272;52.426;17.100;2023-10-09T10:32:56;14.30;80.10
24091;DHT22;12272;52.426;17.100;2023-10-09T10:38:29;14.30;84.70
24091;DHT22;12272;52.426;17.100;2023-10-09T10:43:48;14.30;84.30
24091;DHT22;12272;52.426;17.100;2023-10-09T10:49:07;14.30;84.00
24091;DHT22;12272;52.426;17.100;2023-10-09T10:54:27;14.30;90.10
24091;DHT22;12272;52.426;17.100;2023-10-09T10:59:39;14.60;84.10
24091;DHT22;12272;52.426;17.100;2023-10-09T11:04:46;14.50;84.50
24091;DHT22;12272;52.426;17.100;2023-10-09T11:09:57;14.40;81.30
24091;DHT22;12272;52.426;17.100;2023-10-09T11:15:01;14.10;77.20
24091;DHT22;12272;52.426;17.100;2023-10-09T11:20:22;14.00;86.60
24091;DHT22;12272;52.426;17.100;2023-10-09T11:25:28;13.60;87.50
24091;DHT22;12272;52.426;17.100;2023-10-09T11:30:32;13.80;81.90
24091;DHT22;12272;52.426;17.100;2023-10-09T11:35:36;13.50;86.70
24091;DHT22;12272;52.426;17.100;2023-10-09T11:40:39;13.70;87.80
24091;DHT22;12272;52.426;17.100;2023-10-09T11:45:53;13.80;85.10
24091;DHT22;12272;52.426;17.100;2023-10-09T11:51:13;14.00;90.60
24091;DHT22;12272;52.426;17.100;2023-10-09T11:56:22;14.00;86.10
24091;DHT22;12272;52.426;17.100;2023-10-09T12:01:28;14.00;90.40
24091;DHT22;12272;52.426;17.100;2023-10-09T12:06:38;14.00;91.90
24091;DHT22;12272;52.426;17.100;2023-10-09T12:11:44;13.50;85.30
24091;DHT22;12272;52.426;17.100;2023-10-09T12:17:06;13.30;84.20
24091;DHT22;12272;52.426;17.100;2023-10-09T12:22:09;13.40;91.80
24091;DHT22;12272;52.426;17.100;2023-10-09T12:27:19;13.30;86.30
24091;DHT22;12272;52.426;17.100;2023-10-09T12:32:22;13.40;92.20
24091;DHT22;12272;52.426;17.100;2023-10-09T12:37:25;13.50;92.50
24091;DHT22;12272;52.426;17.100;2023-10-09T12:42:27;13.80;92.80
24091;DHT22;12272;52.426;17.100;2023-10-09T12:47:31;13.80;88.60
24091;DHT22;12272;52.426;17.100;2023-10-09T12:52:35;13.40;89.50
24091;DHT22;12272;52.426;17.100;2023-10-09T12:57:39;13.40;90.50
24091;DHT22;12272;52.426;17.100;2023-10-09T13:02:42;13.40;92.10
24091;DHT22;12272;52.426;17.100;2023-10-09T13:07:47;13.40;89.90
24091;DHT22;12272;52.426;17.100;2023-10-09T13:12:49;13.30;91.50
24091;DHT22;12272;52.426;17.100;2023-10-09T13:17:57;13.40;93.40
24091;DHT22;12272;52.426;17.100;2023-10-09T13:23:00;13.30;91.80
24091;DHT22;12272;52.426;17.100;2023-10-09T13:28:04;13.40;90.90
24091;DHT22;12272;52.426;17.100;2023-10-09T13:33:07;13.50;90.70
24091;DHT22;12272;52.426;17.100;2023-10-09T13:38:10;13.30;90.20
24091;DHT22;12272;52.426;17.100;2023-10-09T13:43:12;13.50;93.50
24091;DHT22;12272;52.426;17.100;2023-10-09T13:48:19;13.30;90.00
24091;DHT22;12272;52.426;17.100;2023-10-09T13:53:23;13.40;93.00
24091;DHT22;12272;52.426;17.100;2023-10-09T13:58:29;13.60;91.10
24091;DHT22;12272;52.426;17.100;2023-10-09T14:03:33;13.70;92.70
24091;DHT22;12272;52.426;17.100;2023-10-09T14:08:36;13.80;85.40
24091;DHT22;12272;52.426;17.100;2023-10-09T14:13:44;13.50;90.40
24091;DHT22;12272;52.426;17.100;2023-10-09T14:18:56;13.30;87.60
24091;DHT22;12272;52.426;17.100;2023-10-09T14:24:06;13.40;92.70
24091;DHT22;12272;52.426;17.100;2023-10-09T14:29:20;13.10;89.20
24091;DHT22;12272;52.426;17.100;2023-10-09T14:34:27;12.80;92.40
24091;DHT22;12272;52.426;17.100;2023-10-09T14:39:39;12.80;93.00
24091;DHT22;12272;52.426;17.100;2023-10-09T14:44:42;12.70;92.90
24091;DHT22;12272;52.426;17.100;2023-10-09T14:49:48;12.50;92.40
24091;DHT22;12272;52.426;17.100;2023-10-09T14:54:50;12.40;92.40
24091;DHT22;12272;52.426;17.100;2023-10-09T14:59:53;12.20;92.40
24091;DHT22;12272;52.426;17.100;2023-10-09T15:04:56;11.80;93.00
24091;DHT22;12272;52.426;17.100;2023-10-09T15:09:58;11.80;94.80
24091;DHT22;12272;52.426;17.100;2023-10-09T15:15:07;11.80;94.30
24091;DHT22;12272;52.426;17.100;2023-10-09T15:20:16;11.90;97.40
24091;DHT22;12272;52.426;17.100;2023-10-09T15:25:19;11.80;95.70
24091;DHT22;12272;52.426;17.100;2023-10-09T15:30:22;11.60;95.20
24091;DHT22;12272;52.426;17.100;2023-10-09T15:35:27;11.40;98.80
24091;DHT22;12272;52.426;17.100;2023-10-09T15:40:31;11.40;97.10
24091;DHT22;12272;52.426;17.100;2023-10-09T15:45:41;11.50;98.00
24091;DHT22;12272;52.426;17.100;2023-10-09T15:50:45;11.30;96.70
24091;DHT22;12272;52.426;17.100;2023-10-09T15:55:51;11.10;98.90
24091;DHT22;12272;52.426;17.100;2023-10-09T16:00:56;11.30;99.70
24091;DHT22;12272;52.426;17.100;2023-10-09T16:05:59;11.10;99.00
24091;DHT22;12272;52.426;17.100;2023-10-09T16:11:01;11.10;99.90
24091;DHT22;12272;52.426;17.100;2023-10-09T16:16:05;11.00;99.90
24091;DHT22;12272;52.426;17.100;2023-10-09T16:21:10;10.90;99.90
24091;DHT22;12272;52.426;17.100;2023-10-09T16:26:15;11.10;99.90
24091;DHT22;12272;52.426;17.100;2023-10-09T16:31:18;10.80;99.90
24091;DHT22;12272;52.426;17.100;2023-10-09T16:36:21;10.70;99.90
24091;DHT22;12272;52.426;17.100;2023-10-09T16:41:23;10.60;99.90
24091;DHT22;12272;52.426;17.100;2023-10-09T16:46:28;10.40;99.90
24091;DHT22;12272;52.426;17.100;2023-10-09T16:51:31;10.40;99.90
24091;DHT22;12272;52.426;17.100;2023-10-09T16:56:33;10.30;99.90
24091;DHT22;12272;52.426;17.100;2023-10-09T17:01:36;10.40;99.90
24091;DHT22;12272;52.426;17.100;2023-10-09T17:06:38;10.50;99.90
24091;DHT22;12272;52.426;17.100;2023-10-09T17:11:41;10.40;99.90
24091;DHT22;12272;52.426;17.100;2023-10-09T17:16:44;10.50;99.90
24091;DHT22;12272;52.426;17.100;2023-10-09T17:21:50;10.60;99.90
24091;DHT22;12272;52.426;17.100;2023-10-09T17:26:52;10.50;99.90
24091;DHT22;12272;52.426;17.100;2023-10-09T17:31:58;10.40;99.90
24091;DHT22;12272;52.426;17.100;2023-10-09T17:37:01;10.30;99.90
24091;DHT22;12272;52.426;17.100;2023-10-09T17:42:04;10.40;99.90
24091;DHT22;12272;52.426;17.100;2023-10-09T17:47:07;10.40;99.90
24091;DHT22;12272;52.426;17.100;2023-10-09T17:52:10;10.70;99.90
24091;DHT22;12272;52.426;17.100;2023-10-09T17:57:14;10.60;99.90
24091;DHT22;12272;52.426;17.100;2023-10-09T18:02:16;10.40;99.90
24091;DHT22;12272;52.426;17.100;2023-10-09T18:07:21;10.10;99.90
24091;DHT22;12272;52.426;17.100;2023-10-09T18:12:25;10.00;99.90
24091;DHT22;12272;52.426;17.100;2023-10-09T18:17:28;9.80;99.90
24091;DHT22;12272;52.426;17.100;2023-10-09T18:22:31;9.60;99.90
24091;DHT22;12272;52.426;17.100;2023-10-09T18:27:34;9.50;99.90
24091;DHT22;12272;52.426;17.100;2023-10-09T18:32:36;9.50;99.90
24091;DHT22;12272;52.426;17.100;2023-10-09T18:37:39;9.50;99.90
24091;DHT22;12272;52.426;17.100;2023-10-09T18:42:42;9.00;99.90
24091;DHT22;12272;52.426;17.100;2023-10-09T18:47:45;8.90;99.90
24091;DHT22;12272;52.426;17.100;2023-10-09T18:52:48;8.90;99.90
24091;DHT22;12272;52.426;17.100;2023-10-09T18:57:54;8.80;99.90
24091;DHT22;12272;52.426;17.100;2023-10-09T19:02:58;8.60;99.90
24091;DHT22;12272;52.426;17.100;2023-10-09T19:08:02;8.80;99.90
24091;DHT22;12272;52.426;17.100;2023-10-09T19:13:05;8.60;99.90
24091;DHT22;12272;52.426;17.100;2023-10-09T19:18:12;8.30;99.90
24091;DHT22;12272;52.426;17.100;2023-10-09T19:23:15;8.30;99.90
24091;DHT22;12272;52.426;17.100;2023-10-09T19:28:18;8.20;99.90
24091;DHT22;12272;52.426;17.100;2023-10-09T19:33:21;8.30;99.90
24091;DHT22;12272;52.426;17.100;2023-10-09T19:38:24;8.20;99.90
24091;DHT22;12272;52.426;17.100;2023-10-09T19:43:27;8.20;99.90
24091;DHT22;12272;52.426;17.100;2023-10-09T19:48:30;8.30;99.90
24091;DHT22;12272;52.426;17.100;2023-10-09T19:53:35;8.00;99.90
24091;DHT22;12272;52.426;17.100;2023-10-09T19:58:39;7.90;99.90
24091;DHT22;12272;52.426;17.100;2023-10-09T20:03:42;7.80;99.90
24091;DHT22;12272;52.426;17.100;2023-10-09T20:08:45;7.60;99.90
24091;DHT22;12272;52.426;17.100;2023-10-09T20:13:50;7.60;99.90
24091;DHT22;12272;52.426;17.100;2023-10-09T20:18:53;8.10;99.90
24091;DHT22;12272;52.426;17.100;2023-10-09T20:23:57;8.10;99.90
24091;DHT22;12272;52.426;17.100;2023-10-09T20:29:03;8.40;99.90
24091;DHT22;12272;52.426;17.100;2023-10-09T20:34:06;8.20;99.90
24091;DHT22;12272;52.426;17.100;2023-10-09T20:39:12;7.90;99.90
24091;DHT22;12272;52.426;17.100;2023-10-09T20:44:15;7.60;99.90
24091;DHT22;12272;52.426;17.100;2023-10-09T20:49:17;7.70;99.90
24091;DHT22;12272;52.426;17.100;2023-10-09T20:54:20;7.50;99.90
24091;DHT22;12272;52.426;17.100;2023-10-09T20:59:23;7.40;99.90
24091;DHT22;12272;52.426;17.100;2023-10-09T21:04:26;7.40;99.90
24091;DHT22;12272;52.426;17.100;2023-10-09T21:09:28;7.20;99.90
24091;DHT22;12272;52.426;17.100;2023-10-09T21:14:31;7.00;99.90
24091;DHT22;12272;52.426;17.100;2023-10-09T21:19:34;6.90;99.90
24091;DHT22;12272;52.426;17.100;2023-10-09T21:24:45;6.90;99.90
24091;DHT22;12272;52.426;17.100;2023-10-09T21:29:53;6.50;99.90
24091;DHT22;12272;52.426;17.100;2023-10-09T21:35:45;6.60;99.90
24091;DHT22;12272;52.426;17.100;2023-10-09T21:41:30;6.60;99.90
24091;DHT22;12272;52.426;17.100;2023-10-09T21:46:34;6.30;99.90
24091;DHT22;12272;52.426;17.100;2023-10-09T21:51:36;6.20;99.90
24091;DHT22;12272;52.426;17.100;2023-10-09T21:56:39;6.20;99.90
24091;DHT22;12272;52.426;17.100;2023-10-09T22:01:42;6.10;99.90
24091;DHT22;12272;52.426;17.100;2023-10-09T22:06:44;6.10;99.90
24091;DHT22;12272;52.426;17.100;2023-10-09T22:11:47;6.10;99.90
24091;DHT22;12272;52.426;17.100;2023-10-09T22:16:49;6.00;99.90
24091;DHT22;12272;52.426;17.100;2023-10-09T22:21:52;5.90;99.90
24091;DHT22;12272;52.426;17.100;2023-10-09T22:26:58;6.00;99.90
24091;DHT22;12272;52.426;17.100;2023-10-09T22:32:01;6.00;99.90
24091;DHT22;12272;52.426;17.100;2023-10-09T22:37:04;5.90;99.90
24091;DHT22;12272;52.426;17.100;2023-10-09T22:42:15;5.80;99.90
24091;DHT22;12272;52.426;17.100;2023-10-09T22:47:19;6.10;99.90
24091;DHT22;12272;52.426;17.100;2023-10-09T22:52:25;6.00;99.90
24091;DHT22;12272;52.426;17.100;2023-10-09T22:57:28;5.70;99.90
24091;DHT22;12272;52.426;17.100;2023-10-09T23:02:30;6.00;99.90
24091;DHT22;12272;52.426;17.100;2023-10-09T23:07:46;6.20;99.90
24091;DHT22;12272;52.426;17.100;2023-10-09T23:13:01;6.00;99.90
24091;DHT22;12272;52.426;17.100;2023-10-09T23:18:17;5.80;99.90
24091;DHT22;12272;52.426;17.100;2023-10-09T23:23:35;5.60;99.90
24091;DHT22;12272;52.426;17.100;2023-10-09T23:28:43;5.50;99.90
24091;DHT22;12272;52.426;17.100;2023-10-09T23:33:54;5.40;99.90
24091;DHT22;12272;52.426;17.100;2023-10-09T23:39:00;5.10;99.90
24091;DHT22;12272;52.426;17.100;2023-10-09T23:44:12;5.10;99.90
24091;DHT22;12272;52.426;17.100;2023-10-09T23:49:22;5.20;99.90
24091;DHT22;12272;52.426;17.100;2023-10-09T23:54:26;5.00;99.90
24091;DHT22;12272;52.426;17.100;2023-10-09T23:59:30;4.90;99.90
